Time,TemperatureF,DewpointF,PressureIn,WindDirection,WindDirectionDegrees,WindSpeedMPH,WindSpeedGustMPH,Humidity,HourlyPrecipIn,Conditions,Clouds,dailyrainin,SoftwareType,DateUTC
2013-07-08 00:00:00,66.8,62.5,29.88,NW,315,3.0,5.0,86,0.00,,---,0.00,VWS V14.01,2013-07-08 07:00:00,
2013-07-08 00:30:00,64.6,61.0,29.89,NW,315,0.0,2.0,88,0.00,,---,0.00,VWS V14.01,2013-07-08 07:30:00,
2013-07-08 01:00:00,64.1,61.1,29.89,NW,315,1.0,3.0,90,0.00,,---,0.00,VWS V14.01,2013-07-08 08:00:00,
2013-07-08 01:30:00,64.6,61.0,29.89,NW,315,0.0,2.0,88,0.00,,---,0.00,VWS V14.01,2013-07-08 08:30:00,
2013-07-08 02:00:00,62.8,60.5,29.89,NW,315,1.0,3.0,92,0.00,,---,0.00,VWS V14.01,2013-07-08 09:00:00,
2013-07-08 02:30:00,63.5,60.8,29.89,NW,315,0.0,2.0,91,0.00,,---,0.00,VWS V14.01,2013-07-08 09:30:00,
2013-07-08 03:00:00,62.6,60.8,29.88,NW,315,1.0,3.0,94,0.00,,---,0.00,VWS V14.01,2013-07-08 10:00:00,
2013-07-08 03:30:00,62.7,61.0,29.89,NW,315,1.0,3.0,94,0.00,,---,0.00,VWS V14.01,2013-07-08 10:30:00,
2013-07-08 04:00:00,62.6,60.8,29.88,NW,315,1.0,3.0,94,0.00,,---,0.00,VWS V14.01,2013-07-08 11:00:00,
2013-07-08 04:30:00,61.7,60.0,29.89,NW,315,2.0,4.0,94,0.00,,---,0.00,VWS V14.01,2013-07-08 11:30:00,
2013-07-08 05:00:00,61.1,59.7,29.89,North,0,1.0,3.0,95,0.00,,---,0.00,VWS V14.01,2013-07-08 12:00:00,
2013-07-08 05:30:00,61.7,60.0,29.89,NW,315,2.0,4.0,94,0.00,,---,0.00,VWS V14.01,2013-07-08 12:30:00,
2013-07-08 06:00:00,61.1,59.7,29.89,North,0,1.0,3.0,95,0.00,,---,0.00,VWS V14.01,2013-07-08 13:00:00,
2013-07-08 06:30:00,60.8,59.4,29.89,North,0,1.0,3.0,95,0.00,,---,0.00,VWS V14.01,2013-07-08 13:30:00,
2013-07-08 07:00:00,62.3,61.7,29.91,North,0,1.0,3.0,98,0.00,,---,0.00,VWS V14.01,2013-07-08 14:00:00,
2013-07-08 07:30:00,64.2,63.0,29.92,North,0,1.0,4.0,96,0.00,,---,0.00,VWS V14.01,2013-07-08 14:30:00,
2013-07-08 08:00:00,66.3,63.9,29.93,North,0,0.0,3.0,92,0.00,,---,0.00,VWS V14.01,2013-07-08 15:00:00,
2013-07-08 08:30:00,64.2,63.0,29.92,North,0,1.0,4.0,96,0.00,,---,0.00,VWS V14.01,2013-07-08 15:30:00,
2013-07-08 09:00:00,66.3,63.9,29.93,North,0,0.0,3.0,92,0.00,,---,0.00,VWS V14.01,2013-07-08 16:00:00,
2013-07-08 09:30:00,71.9,65.0,29.94,South,180,5.0,9.0,79,0.00,,---,0.00,VWS V14.01,2013-07-08 16:30:00,
2013-07-08 10:00:00,72.2,65.3,29.94,South,180,6.0,12.0,79,0.00,,---,0.00,VWS V14.01,2013-07-08 17:00:00,
2013-07-08 10:30:00,71.9,65.0,29.94,South,180,5.0,9.0,79,0.00,,---,0.00,VWS V14.01,2013-07-08 17:30:00,
2013-07-08 11:00:00,72.4,65.5,29.95,South,180,7.0,15.0,79,0.00,,---,0.00,VWS V14.01,2013-07-08 18:00:00,
2013-07-08 11:30:00,73.4,65.8,29.95,SSE,158,6.0,12.0,77,0.00,,---,0.00,VWS V14.01,2013-07-08 18:30:00,
2013-07-08 12:00:00,74.7,66.3,29.94,South,180,5.0,12.0,75,0.00,,---,0.00,VWS V14.01,2013-07-08 19:00:00,
2013-07-08 12:30:00,76.3,67.0,29.93,SSE,158,5.0,11.0,73,0.00,,---,0.00,VWS V14.01,2013-07-08 19:30:00,
2013-07-08 13:00:00,79.6,67.7,29.93,South,180,3.0,8.0,67,0.00,,---,0.00,VWS V14.01,2013-07-08 20:00:00,
2013-07-08 13:30:00,81.1,66.9,29.92,South,180,5.0,12.0,62,0.00,,---,0.00,VWS V14.01,2013-07-08 20:30:00,
2013-07-08 14:00:00,81.6,67.3,29.92,South,180,6.0,11.0,62,0.00,,---,0.00,VWS V14.01,2013-07-08 21:00:00,
2013-07-08 14:30:00,81.1,66.9,29.92,South,180,5.0,12.0,62,0.00,,---,0.00,VWS V14.01,2013-07-08 21:30:00,
2013-07-08 15:00:00,86.8,58.9,29.90,West,270,5.0,12.0,39,0.00,,---,0.00,VWS V14.01,2013-07-08 22:00:00,
2013-07-08 15:30:00,82.6,67.8,29.91,South,180,7.0,13.0,61,0.00,,---,0.00,VWS V14.01,2013-07-08 22:30:00,
2013-07-08 16:00:00,86.8,58.9,29.90,West,270,5.0,12.0,39,0.00,,---,0.00,VWS V14.01,2013-07-08 23:00:00,
2013-07-08 16:30:00,86.1,59.7,29.90,West,270,8.0,15.0,41,0.00,,---,0.00,VWS V14.01,2013-07-08 23:30:00,
2013-07-08 17:00:00,84.1,61.1,29.88,West,262,12.0,15.0,46,0.00,,---,0.00,VWS V14.01,2013-07-09 00:00:00,
2013-07-08 17:30:00,84.8,60.5,29.89,NNW,332,6.0,15.0,44,0.00,,---,0.00,VWS V14.01,2013-07-09 00:30:00,
2013-07-08 17:58:00,82.2,61.2,29.87,NW,308,8.0,13.0,49,0.00,,---,0.00,VWS V14.01,2013-07-09 00:58:00,
2013-07-08 18:00:00,84.1,61.1,29.88,West,262,12.0,15.0,46,0.00,,---,0.00,VWS V14.01,2013-07-09 01:00:00,
2013-07-08 18:28:00,80.2,61.5,29.87,North,10,4.0,14.0,53,0.00,,---,0.00,VWS V14.01,2013-07-09 01:28:00,
2013-07-08 18:30:00,83.1,61.4,29.87,WSW,254,10.0,15.0,48,0.00,,---,0.00,VWS V14.01,2013-07-09 01:30:00,
2013-07-08 18:58:00,80.3,62.7,29.88,SW,225,3.0,10.0,55,0.00,,---,0.00,VWS V14.01,2013-07-09 01:58:00,
2013-07-08 19:00:00,82.2,61.2,29.87,NW,308,8.0,13.0,49,0.00,,---,0.00,VWS V14.01,2013-07-09 02:00:00,
2013-07-08 19:28:00,78.2,62.7,29.88,West,273,2.0,10.0,59,0.00,,---,0.00,VWS V14.01,2013-07-09 02:28:00,
2013-07-08 19:30:00,80.2,61.5,29.87,North,10,4.0,14.0,53,0.00,,---,0.00,VWS V14.01,2013-07-09 02:30:00,
2013-07-08 19:58:00,75.7,63.1,29.89,West,268,4.0,9.0,65,0.00,,---,0.00,VWS V14.01,2013-07-09 02:58:00,
2013-07-08 20:00:00,80.3,62.7,29.88,SW,225,3.0,10.0,55,0.00,,---,0.00,VWS V14.01,2013-07-09 03:00:00,
2013-07-08 20:28:00,73.4,62.2,29.89,WNW,303,2.0,8.0,68,0.00,,---,0.00,VWS V14.01,2013-07-09 03:28:00,
2013-07-08 20:30:00,78.2,62.7,29.88,West,273,2.0,10.0,59,0.00,,---,0.00,VWS V14.01,2013-07-09 03:30:00,
2013-07-08 21:00:00,71.6,62.1,29.90,WNW,292,4.0,8.0,72,0.00,,---,0.00,VWS V14.01,2013-07-09 04:00:00,
2013-07-08 21:30:00,70.5,61.8,29.92,WNW,292,2.0,5.0,74,0.00,,---,0.00,VWS V14.01,2013-07-09 04:30:00,
2013-07-08 22:00:00,69.8,61.2,29.92,WNW,292,1.0,3.0,74,0.00,,---,0.00,VWS V14.01,2013-07-09 05:00:00,
2013-07-08 22:30:00,68.8,62.7,29.93,WSW,248,1.0,3.0,81,0.00,,---,0.00,VWS V14.01,2013-07-09 05:30:00,
2013-07-08 23:00:00,67.8,62.5,29.93,South,180,1.0,4.0,83,0.00,,---,0.00,VWS V14.01,2013-07-09 06:00:00,
2013-07-08 23:30:00,67.2,63.2,29.94,South,180,1.0,3.0,87,0.00,,---,0.00,VWS V14.01,2013-07-09 06:30:00,